createdAt,value
2019-05-02T00:00:21.444Z,45.97
2019-05-02T00:05:32.128Z,38.80
2019-05-02T00:10:39.697Z,41.47
2019-05-02T00:15:48.487Z,41.00
2019-05-02T00:20:57.195Z,46.53
2019-05-02T00:26:04.620Z,41.37
2019-05-02T00:31:12.950Z,50.27
2019-05-02T00:36:21.434Z,47.47
2019-05-02T00:41:33.224Z,56.87
2019-05-02T00:46:40.350Z,49.47
2019-05-02T00:51:47.638Z,48.77
2019-05-02T00:56:54.864Z,51.87
2019-05-02T01:02:20.793Z,46.50
2019-05-02T01:07:28.915Z,55.20
2019-05-02T01:12:40.041Z,50.03
2019-05-02T01:17:45.231Z,51.40
2019-05-02T01:22:53.635Z,50.93
2019-05-02T01:28:12.754Z,48.00
2019-05-02T01:33:26.285Z,45.50
2019-05-02T01:38:35.108Z,49.17
2019-05-02T01:43:43.035Z,48.43
2019-05-02T01:48:50.248Z,46.30
2019-05-02T01:53:57.425Z,48.83
2019-05-02T01:59:04.701Z,47.50
2019-05-02T02:04:16.182Z,44.70
2019-05-02T02:09:21.595Z,49.43
2019-05-02T02:14:28.817Z,50.70
2019-05-02T02:19:48.038Z,50.57
2019-05-02T02:25:13.174Z,53.07
2019-05-02T02:30:24.449Z,56.37
2019-05-02T02:35:30.240Z,47.83
2019-05-02T02:40:37.477Z,48.80
2019-05-02T02:45:59.802Z,57.37
2019-05-02T02:51:08.109Z,53.50
2019-05-02T02:56:16.445Z,53.17
2019-05-02T03:01:28.868Z,53.43
2019-05-02T03:06:38.258Z,52.73
2019-05-02T03:12:04.269Z,56.70
2019-05-02T03:17:11.040Z,62.17
2019-05-02T03:22:18.327Z,59.03
2019-05-02T03:27:29.670Z,64.70
2019-05-02T03:32:37.670Z,72.43
2019-05-02T03:37:51.187Z,73.07
2019-05-02T03:42:53.794Z,67.43
2019-05-02T03:48:02.674Z,73.83
2019-05-02T03:53:11.183Z,71.40
2019-05-02T03:58:19.595Z,69.10
2019-05-02T04:03:27.200Z,77.43
2019-05-02T04:08:36.680Z,83.87
2019-05-02T04:13:44.120Z,75.80
2019-05-02T04:18:55.729Z,70.90
2019-05-02T04:24:12.616Z,75.73
2019-05-02T04:29:13.276Z,70.43
2019-05-02T04:34:20.995Z,76.03
2019-05-02T04:39:29.206Z,74.43
2019-05-02T04:44:59.777Z,80.60
2019-05-02T04:49:51.342Z,81.30
2019-05-02T04:55:08.789Z,75.77
2019-05-02T05:00:11.497Z,76.73
2019-05-02T05:05:17.336Z,78.87
2019-05-02T05:10:27.694Z,84.83
2019-05-02T05:15:41.231Z,76.67
2019-05-02T05:20:45.966Z,79.17
2019-05-02T05:25:55.688Z,76.00
2019-05-02T05:31:07.727Z,83.03
2019-05-02T05:36:19.707Z,81.23
2019-05-02T05:41:27.813Z,80.40
2019-05-02T05:46:38.692Z,89.13
2019-05-02T05:51:44.264Z,81.30
2019-05-02T05:56:51.494Z,90.57
2019-05-02T06:02:05.311Z,83.23
2019-05-02T06:07:09.550Z,86.73
2019-05-02T06:12:17.332Z,86.73
2019-05-02T06:17:28.532Z,85.43
2019-05-02T06:22:37.209Z,87.70
2019-05-02T06:27:44.444Z,94.33
2019-05-02T06:32:54.919Z,86.20
2019-05-02T06:38:01.209Z,92.83
2019-05-02T06:43:09.714Z,79.97
2019-05-02T06:48:19.168Z,89.20
2019-05-02T06:53:26.439Z,87.60
2019-05-02T06:58:37.070Z,85.60
2019-05-02T07:03:46.362Z,78.77
2019-05-02T07:08:54.986Z,79.00
2019-05-02T07:14:13.195Z,79.03
2019-05-02T07:19:16.495Z,82.20
2019-05-02T07:24:25.293Z,78.20
2019-05-02T07:29:34.013Z,85.53
2019-05-02T07:34:44.276Z,78.97
2019-05-02T07:39:55.567Z,76.07
2019-05-02T07:45:09.179Z,74.47
2019-05-02T07:50:14.838Z,75.03
2019-05-02T07:55:22.179Z,77.43
2019-05-02T08:00:32.116Z,73.93
2019-05-02T08:05:39.475Z,72.27
2019-05-02T08:10:47.117Z,78.23
2019-05-02T08:15:54.360Z,71.23
2019-05-02T08:21:01.567Z,72.43
2019-05-02T08:26:10.102Z,73.80
2019-05-02T08:31:18.861Z,74.43
2019-05-02T08:36:28.169Z,66.63
2019-05-02T08:41:36.074Z,76.03
2019-05-02T08:46:46.134Z,65.87
2019-05-02T08:57:11.978Z,66.87
2019-05-02T09:02:21.149Z,65.73
2019-05-02T09:07:31.697Z,68.23
2019-05-02T09:12:43.748Z,64.53
2019-05-02T09:17:54.820Z,62.10
2019-05-02T09:22:57.116Z,67.57
2019-05-02T09:28:05.104Z,57.77
2019-05-02T09:33:12.268Z,58.20
2019-05-02T09:38:19.500Z,57.70
2019-05-02T09:43:29.336Z,55.80
2019-05-02T09:48:36.600Z,55.77
2019-05-02T09:53:43.873Z,56.93
2019-05-02T09:58:55.069Z,48.97
2019-05-02T10:04:02.156Z,54.33
2019-05-02T10:09:12.082Z,45.80
2019-05-02T10:14:22.402Z,52.83
2019-05-02T10:19:32.701Z,48.67
2019-05-02T10:24:47.620Z,49.53
2019-05-02T10:29:57.266Z,44.37
2019-05-02T10:35:07.844Z,42.87
2019-05-02T10:40:18.601Z,41.73
2019-05-02T10:45:25.961Z,43.80
2019-05-02T10:50:47.862Z,44.93
2019-05-02T10:55:55.153Z,42.23
2019-05-02T11:01:13.138Z,42.83
2019-05-02T11:06:22.273Z,44.57
2019-05-02T11:11:32.229Z,46.13
2019-05-02T11:16:52.629Z,49.47
2019-05-02T11:22:00.320Z,43.70
2019-05-02T11:27:08.590Z,43.90
2019-05-02T11:32:16.042Z,50.30
2019-05-02T11:37:23.822Z,43.10
2019-05-02T11:42:32.339Z,45.33
2019-05-02T11:47:42.291Z,46.07
2019-05-02T11:52:52.886Z,48.83
2019-05-02T11:58:07.921Z,47.97
2019-05-02T12:03:13.136Z,40.33
2019-05-02T12:08:22.686Z,42.10
2019-05-02T12:13:32.227Z,38.80
2019-05-02T12:18:41.900Z,34.83
2019-05-02T12:23:49.420Z,34.50
2019-05-02T12:28:56.687Z,35.57
2019-05-02T12:34:06.461Z,34.23
2019-05-02T12:39:13.709Z,32.80
2019-05-02T12:44:22.359Z,31.07
2019-05-02T12:49:32.342Z,37.87
2019-05-02T12:54:39.396Z,37.33
2019-05-02T12:59:46.816Z,31.03
2019-05-02T13:04:53.983Z,33.23
2019-05-02T13:10:02.423Z,33.63
2019-05-02T13:15:12.732Z,33.27
2019-05-02T13:20:24.738Z,35.03
2019-05-02T13:25:36.751Z,31.17
2019-05-02T13:30:46.472Z,28.20
2019-05-02T13:35:53.504Z,29.27
2019-05-02T13:41:02.613Z,27.60
2019-05-02T13:46:12.661Z,29.10
2019-05-02T13:51:22.324Z,36.50
2019-05-02T13:56:49.372Z,29.03
2019-05-02T14:01:56.711Z,34.10
2019-05-02T14:07:07.713Z,26.07
2019-05-02T14:12:21.899Z,18.93
2019-05-02T14:17:30.114Z,23.07
2019-05-02T14:22:37.444Z,26.93
2019-05-02T14:27:47.063Z,26.73
2019-05-02T14:32:53.703Z,22.73
2019-05-02T14:38:13.965Z,27.17
2019-05-02T14:43:46.197Z,27.53
2019-05-02T14:48:52.411Z,20.07
2019-05-02T14:54:07.713Z,15.93
2019-05-02T14:59:17.936Z,14.20
2019-05-02T15:04:24.067Z,15.40
2019-05-02T15:09:33.384Z,17.27
2019-05-02T15:14:43.234Z,16.97
2019-05-02T15:19:52.621Z,20.77
2019-05-02T15:25:02.728Z,120.07
2019-05-02T15:30:11.010Z,16.00
2019-05-02T15:35:23.048Z,12.00
2019-05-02T15:45:42.014Z,12.40
2019-05-02T15:50:52.225Z,14.83
2019-05-02T15:55:57.971Z,16.23
2019-05-02T16:01:12.003Z,15.10
2019-05-02T16:06:24.343Z,14.03
2019-05-02T16:11:32.077Z,12.67
2019-05-02T16:16:43.560Z,12.70
2019-05-02T16:21:55.116Z,32.63
2019-05-02T16:27:03.279Z,12.13
2019-05-02T16:32:13.375Z,9.03
2019-05-02T16:37:22.816Z,10.47
2019-05-02T16:42:32.790Z,11.67
2019-05-02T16:47:42.316Z,9.97
2019-05-02T16:52:49.713Z,11.17
2019-05-02T16:58:02.676Z,13.53
2019-05-02T17:03:09.340Z,9.67
2019-05-02T17:08:24.583Z,12.13
2019-05-02T17:13:35.567Z,10.97
2019-05-02T17:18:43.357Z,10.67
2019-05-02T17:23:52.353Z,12.80
2019-05-02T17:29:02.538Z,13.73
2019-05-02T17:34:12.544Z,12.83
2019-05-02T17:39:22.322Z,11.07
2019-05-02T17:44:29.796Z,13.37
2019-05-02T17:49:38.467Z,16.33
2019-05-02T17:54:47.308Z,19.50
2019-05-02T17:59:54.534Z,21.10
2019-05-02T18:05:04.116Z,19.00
2019-05-02T18:10:20.572Z,20.97
2019-05-02T18:15:23.537Z,20.97
2019-05-02T18:20:37.196Z,21.27
2019-05-02T18:25:43.149Z,20.43
2019-05-02T18:30:52.453Z,23.80
2019-05-02T18:36:04.240Z,22.43
2019-05-02T18:41:12.777Z,22.77
2019-05-02T18:46:22.291Z,22.40
2019-05-02T18:51:29.828Z,24.53
2019-05-02T18:56:42.846Z,22.83
2019-05-02T19:02:04.304Z,26.13
2019-05-02T19:07:15.865Z,22.33
2019-05-02T19:12:26.038Z,21.20
2019-05-02T19:17:31.619Z,25.23
2019-05-02T19:22:50.549Z,22.47
2019-05-02T19:27:57.695Z,23.47
2019-05-02T19:33:06.053Z,24.73
2019-05-02T19:38:12.312Z,21.57
2019-05-02T19:43:19.641Z,26.37
2019-05-02T19:48:33.054Z,23.37
2019-05-02T19:53:36.774Z,24.60
2019-05-02T19:58:46.795Z,29.07
2019-05-02T20:03:56.731Z,21.73
2019-05-02T20:09:08.317Z,24.40
2019-05-02T20:14:15.267Z,22.10
2019-05-02T20:19:26.769Z,23.13
2019-05-02T20:25:00.304Z,21.87
2019-05-02T20:30:04.325Z,21.73
2019-05-02T20:35:12.350Z,23.37
2019-05-02T20:40:31.903Z,22.20
2019-05-02T20:45:40.266Z,25.30
2019-05-02T20:50:48.506Z,23.73
2019-05-02T20:55:55.806Z,24.23
2019-05-02T21:01:08.554Z,28.17
2019-05-02T21:06:36.983Z,28.97
2019-05-02T21:11:33.612Z,26.73
2019-05-02T21:16:42.164Z,27.00
2019-05-02T21:21:52.647Z,30.83
2019-05-02T21:27:02.043Z,32.33
2019-05-02T21:32:12.057Z,30.63
2019-05-02T21:37:19.426Z,31.10
2019-05-02T21:42:27.643Z,32.57
2019-05-02T21:47:35.759Z,34.33
2019-05-02T21:52:48.672Z,28.23
2019-05-02T21:57:56.531Z,33.30
2019-05-02T22:03:04.975Z,31.60
2019-05-02T22:08:14.427Z,27.37
2019-05-02T22:13:22.243Z,25.83
2019-05-02T22:18:32.139Z,26.73
2019-05-02T22:23:39.579Z,29.37
2019-05-02T22:28:46.805Z,31.70
2019-05-02T22:33:54.032Z,33.83
2019-05-02T22:39:22.052Z,43.87
2019-05-02T22:44:30.088Z,32.80
2019-05-02T23:08:32.646Z,51.97
2019-05-02T23:13:39.927Z,51.60
2019-05-02T23:18:47.723Z,54.47
2019-05-02T23:24:01.675Z,55.37
2019-05-02T23:29:10.165Z,54.77
2019-05-02T23:34:18.483Z,56.17
2019-05-02T23:39:25.749Z,60.10
2019-05-02T23:44:33.960Z,58.00
2019-05-02T23:49:42.729Z,61.87
2019-05-02T23:54:52.482Z,60.23
2019-05-02T23:59:58.974Z,58.53
